Accueil
METAR-TAF:

METAR-TAF

Aéroports :

Lancaster, Caroline du Sud, États-Unis

latitude: 34-43-22N, longitude: 080-51-17W, altitude: 148 m

Observation

Le bulletin a été fait il y a 17 minutes, à 16:55 UTC
Vent calme
Température 4°C
Humidité 48%
Pression 1028 hPa
Visibilité: 16.1 km
Ciel couvert à une hauteur de 2000 ft

METAR: KLKR 141655Z AUTO 00000KT 10SM OVC020 04/M06 A3036 RMK AO2

Heure: 12:12 (17:12 UTC)


TAF: absent

Observations et prévisions météorologiques de plus de 4000 aéroports (messages METAR et TAF).

Les stations disponibles sont représentées par des disques jaunes et rouges sur la carte.

Passer la souris dessus pour voir le nom de la station.

Cliquer dessus pour voir les observations et prévisions météorologiques.

Pour changer de carte: cliquez sur les boutons verts avec une croix noire pour zoomer, sur le bouton vert avec un tiret pour effectuer un zoom arrière, ou sur les flèches vertes pour les cartes adjacentes.


METAR-TAF: